Nearby METAR Reports

 

KHIF - Hill Afb/Ogden, Utah, USA
Distance from station: ENE 6mi, 9km
Updated: Tue, 12-Dec-2017 1:35am MST

 Wind from calm
Wind: Calm
Visibility: 1/4 mile , 2 km
2017/12/12 08:35 KHIF 120835Z AUTO 00000KT 1/4SM R14/M0100FT M VV000 M05/M06 A3058 RMK AO2 FZDZB01E06FZDZB09E10FZDZB11E12FZDZB33E35 SLP380 $
KOGD - Ogden, Utah, USA
Distance from station: NNE 9mi, 14km
Updated: Tue, 12-Dec-2017 1:30am MST
Mist, Overcast
Mist, Overcast
 Wind from calm
Wind: Calm
Temperature: 25°F , -4°C
Dew Point: 23°F , -5°C
Humidity: 93%
Barometer: 30.60 inHg , 1036.2 hPa
Summary: Mist
Clouds: Overcast
Visibility: 1 mile , 2 km
Cloud details: Overcast 200 ft
2017/12/12 08:30 KOGD 120830Z AUTO 00000KT 1SM BR VV002 M04/M05 A3060 RMK AO2 T10441050
 
KSLC - Salt Lake City, Utah, USA
Distance from station: SSE 21mi, 34km
Updated: Tue, 12-Dec-2017 1:04am MST
Light snow, Freezing, Fog, Overcast
Light snow, Freezing, Fog, Overcast
 Wind from calm
Wind: Calm
Temperature: 25°F , -4°C
Dew Point: 23°F , -5°C
Humidity: 93%
Barometer: 30.60 inHg , 1036.2 hPa
Summary: Light snow, Freezing, Fog
Clouds: Overcast
Visibility: 1/4 mile , 2 km
Cloud details: Overcast 600 ft
2017/12/12 08:04 KSLC 120804Z 00000KT 1/4SM R16L/1600V1800FT -SN FZFG OVC006 M04/M05 A3060 RMK AO2 P0000 T10391050 VISNO NW RNWY $
KLGU - Logan, Utah, USA
Distance from station: NNE 50mi, 80km
Updated: Tue, 12-Dec-2017 12:51am MST
Haze, Overcast
Haze, Overcast
 Wind from calm
Wind: Calm
Temperature: 18°F , -8°C
Dew Point: 12°F , -11°C
Humidity: 79%
Barometer: 30.61 inHg , 1036.6 hPa
Summary: Haze
Clouds: Overcast
Visibility: 1 1/2 miles , 2 km
Cloud details: Overcast 200 ft
2017/12/12 07:51 KLGU 120751Z AUTO 00000KT 1 1/2SM HZ OVC002 M08/M11 A3061 RMK AO2 SLP410 T10781111
 
K36U - Heber/Russ Mcdon, Utah, USA
Distance from station: SE 53mi, 85km
Updated: Wed, 11-Oct-2017 6:50pm MDT
NOT Current
Clear
Clear
 Wind from SSW
Wind: SSW 10 mph , 17 km/h, Gust: 18 mph , 30 km/h
Temperature: 63°F , 17°C
Dew Point: 16°F , -9°C
Humidity: 16%
Barometer: 29.87 inHg , 1011.5 hPa
Clouds: Clear
Visibility: 10 miles , 16 km
2017/10/12 00:50 K36U 120050Z AUTO 21009G16KT 10SM CLR 17/M09 A2987 RMK AO2
KEVW - Evanston, Wyoming, USA
Distance from station: ENE 55mi, 89km
Updated: Tue, 12-Dec-2017 12:53am MST
Clear
Clear
 Wind from calm
Wind: Calm
Temperature: 34°F , 1°C
Dew Point: 10°F , -12°C
Humidity: 38%
Barometer: 30.54 inHg , 1034.2 hPa
Clouds: Clear
Visibility: 10 miles , 16 km
2017/12/12 07:53 KEVW 120753Z AUTO 00000KT 10SM CLR 01/M12 A3054 RMK AO2 SLP326 T00111122 TSNO
 
KPVU - Provo Muni, Utah, USA
Distance from station: SSE 62mi, 100km
Updated: Tue, 12-Dec-2017 12:56am MST
Clear
Clear
 Wind from calm
Wind: Calm
Temperature: 19°F , -7°C
Dew Point: 18°F , -8°C
Humidity: 93%
Barometer: 30.59 inHg , 1035.9 hPa
Clouds: Clear
Visibility: 4 miles , 6 km
2017/12/12 07:56 KPVU 120756Z AUTO 00000KT 4SM CLR M07/M08 A3059 RMK AO2 SLP394 T10671078
KDPG - Dugway Prvg Grou, Utah, USA
Distance from station: SW 75mi, 121km
Updated: Mon, 11-Dec-2017 3:50pm MST
NOT Current
Few Clouds
Few Clouds
 Wind from WNW
Wind: WNW 5 mph , 7 km/h
Temperature: 34°F , 1°C
Wind Chill: 29°F , -2°C
Dew Point: 21°F , -6°C
Humidity: 60%
Barometer: 30.55 inHg , 1034.5 hPa
Clouds: Few Clouds
Visibility: 25 miles , 40 km
Cloud details: Few Clouds 25000 ft
2017/12/11 22:50 KDPG 112250Z 29004KT 25SM FEW250 01/M06 A3055 RMK SLP380 T00071062
 
KENV - Wendover (aut), Utah, USA
Distance from station: WSW 105mi, 169km
Updated: Tue, 12-Dec-2017 12:56am MST
Clear
Clear
 Wind from calm
Wind: Calm
Temperature: 12°F , -11°C
Dew Point: 9°F , -13°C
Humidity: 85%
Barometer: 30.61 inHg , 1036.6 hPa
Clouds: Clear
Visibility: 10 miles , 16 km
2017/12/12 07:56 KENV 120756Z AUTO 00000KT 10SM CLR M11/M13 A3061 RMK AO2 SLP414 T11061128 FZRANO
KPUC - Price, Utah, USA
Distance from station: SE 123mi, 197km
Updated: Tue, 12-Dec-2017 12:53am MST
Clear
Clear
 Wind from calm
Wind: Calm
Temperature: 25°F , -4°C
Dew Point: 3°F , -16°C
Humidity: 39%
Barometer: 30.49 inHg , 1032.5 hPa
Clouds: Clear
Visibility: 10 miles , 16 km
2017/12/12 07:53 KPUC 120753Z AUTO 00000KT 10SM CLR M04/M16 A3049 RMK AO2 SLP358 T10391156
 
KPIH - Pocatello, Idaho, USA
Distance from station: NNW 130mi, 208km
Updated: Tue, 12-Dec-2017 12:53am MST
Clear
Clear
 Wind from calm
Wind: Calm
Temperature: 16°F , -9°C
Dew Point: 12°F , -11°C
Humidity: 86%
Barometer: 30.59 inHg , 1035.9 hPa
Clouds: Clear
Visibility: 8 miles , 13 km
2017/12/12 07:53 KPIH 120753Z AUTO 00000KT 8SM CLR M09/M11 A3059 RMK AO2 SLP403 I1000 T10941106
KBYI - Burley, Idaho, USA
Distance from station: NW 134mi, 216km
Updated: Tue, 12-Dec-2017 12:53am MST
Freezing fog, Overcast
Freezing fog, Overcast
 Wind from calm
Wind: Calm
Temperature: 19°F , -7°C
Dew Point: 18°F , -8°C
Humidity: 93%
Barometer: 30.58 inHg , 1035.6 hPa
Summary: Freezing Fog
Clouds: Overcast
Visibility: 1/4 mile , 2 km
Cloud details: Overcast 200 ft
2017/12/12 07:53 KBYI 120753Z AUTO 00000KT 1/4SM FZFG VV002 M07/M08 A3058 RMK AO2 SLP390 T10671083 FZRANO $
 
KVEL - Vernal, Utah, USA
Distance from station: ESE 140mi, 226km
Updated: Tue, 12-Dec-2017 12:53am MST
Clear
Clear
 Wind from W
Wind: W 5 mph , 7 km/h
Temperature: 19°F , -7°C
Wind Chill: 12°F , -11°C
Dew Point: 7°F , -14°C
Humidity: 58%
Barometer: 30.56 inHg , 1034.9 hPa
Clouds: Clear
Visibility: 10 miles , 16 km
2017/12/12 07:53 KVEL 120753Z AUTO 27004KT 10SM CLR M07/M14 A3056 RMK AO2 SLP381 T10721139
KBPI - Big Piney, Wyoming, USA
Distance from station: NE 145mi, 234km
Updated: Tue, 12-Dec-2017 12:53am MST
Clear
Clear
 Wind from NW
Wind: NW 8 mph , 13 km/h
Temperature: 16°F , -9°C
Wind Chill: 5°F , -15°C
Dew Point: 7°F , -14°C
Humidity: 67%
Barometer: 30.53 inHg , 1033.9 hPa
Clouds: Clear
Visibility: 10 miles , 16 km
2017/12/12 07:53 KBPI 120753Z AUTO 32007KT 10SM CLR M09/M14 A3053 RMK AO2 SLP334 T10891139